ベルリン/テーゲル の空港の天気 - METARとTAF

ベルリン・テーゲル国際空港 ( EDDT / TXL ) - ドイツ ベルリン
飛行場実況気象(Metar)
観測時間07/17 11:20 CEST (07/17 09:20 UTC)
風向・風速北北西 5m/s
視程10km以上
天気現象
なし
気温25℃
湿度44%
気圧1012hPa
METAREDDT 170920Z 33009KT 290V010 CAVOK 25/12 Q1012 NOSIG
過去の天気等 Google飛行場航空写真 Wunderground天気予報

過去48時間のMETAR

飛行場予報(TAF)
発表時間: 7/17 07:00 CEST (7/17 05:00 UTC)
予報対象時間: 17日8時 CEST ~ 18日8時 CEST
風向・風速北西 3m/s
視程10km以上
なし
TAF EDDT 170500Z 1706/1806 32005KT CAVOK